createdAt,value
2022-08-20T00:01:39.530Z,3.67
2022-08-20T00:04:06.241Z,4.07
2022-08-20T00:06:34.229Z,3.70
2022-08-20T00:09:00.806Z,3.85
2022-08-20T00:11:29.061Z,4.18
2022-08-20T00:13:59.539Z,4.03
2022-08-20T00:16:32.914Z,4.28
2022-08-20T00:19:01.241Z,4.32
2022-08-20T00:21:28.235Z,5.05
2022-08-20T00:23:58.467Z,4.32
2022-08-20T00:26:25.330Z,6.20
2022-08-20T00:28:52.742Z,6.70
2022-08-20T00:31:22.091Z,7.22
2022-08-20T00:33:48.892Z,6.45
2022-08-20T00:36:17.614Z,7.43
2022-08-20T00:38:46.241Z,8.60
2022-08-20T00:41:21.242Z,8.25
2022-08-20T00:44:21.912Z,8.15
2022-08-20T00:46:49.473Z,9.02
2022-08-20T00:51:50.448Z,8.85
2022-08-20T00:54:23.016Z,9.07
2022-08-20T00:57:12.432Z,8.10
2022-08-20T00:59:41.757Z,7.55
2022-08-20T01:02:13.563Z,8.18
2022-08-20T01:04:43.780Z,7.65
2022-08-20T01:07:11.290Z,7.30
2022-08-20T01:09:58.231Z,8.00
2022-08-20T01:12:25.215Z,8.30
2022-08-20T01:14:52.103Z,7.53
2022-08-20T01:17:24.684Z,8.43
2022-08-20T01:19:56.922Z,9.60
2022-08-20T01:23:01.832Z,8.48
2022-08-20T01:25:46.992Z,8.02
2022-08-20T01:28:16.289Z,8.43
2022-08-20T01:30:42.921Z,8.23
2022-08-20T01:33:09.962Z,8.95
2022-08-20T01:35:41.525Z,8.70
2022-08-20T01:38:08.985Z,8.40
2022-08-20T01:40:52.029Z,8.20
2022-08-20T01:43:18.679Z,7.40
2022-08-20T01:45:48.716Z,7.07
2022-08-20T01:48:17.583Z,7.00
2022-08-20T01:50:53.366Z,7.70
2022-08-20T01:53:34.776Z,6.82
2022-08-20T01:56:05.229Z,7.30
2022-08-20T01:58:33.448Z,5.57
2022-08-20T02:01:00.109Z,6.72
2022-08-20T02:03:26.958Z,6.15
2022-08-20T02:05:53.642Z,6.87
2022-08-20T02:08:23.205Z,6.43
2022-08-20T02:10:50.166Z,7.00
2022-08-20T02:13:17.184Z,6.07
2022-08-20T02:15:43.946Z,6.38
2022-08-20T02:18:14.889Z,5.80
2022-08-20T02:20:43.257Z,5.40
2022-08-20T02:23:11.973Z,6.22
2022-08-20T02:25:40.355Z,5.63
2022-08-20T02:28:09.810Z,6.22
2022-08-20T02:30:40.364Z,7.50
2022-08-20T02:33:10.088Z,5.45
2022-08-20T02:35:37.844Z,6.22
2022-08-20T02:38:04.685Z,6.20
2022-08-20T02:40:32.443Z,6.60
2022-08-20T02:45:26.895Z,6.20
2022-08-20T02:47:54.234Z,7.18
2022-08-20T02:50:23.937Z,6.95
2022-08-20T02:52:52.142Z,5.93
2022-08-20T02:55:26.997Z,6.00
2022-08-20T02:58:00.175Z,5.93
2022-08-20T03:00:29.079Z,5.70
2022-08-20T03:02:59.341Z,6.00
2022-08-20T03:05:26.403Z,5.90
2022-08-20T03:07:53.853Z,5.50
2022-08-20T03:10:27.980Z,5.45
2022-08-20T03:12:54.731Z,5.30
2022-08-20T03:15:21.581Z,5.53
2022-08-20T03:17:48.125Z,5.83
2022-08-20T03:20:15.186Z,5.03
2022-08-20T03:22:41.713Z,4.30
2022-08-20T03:25:09.085Z,4.75
2022-08-20T03:27:36.493Z,4.30
2022-08-20T03:32:31.639Z,4.32
2022-08-20T03:34:58.225Z,4.55
2022-08-20T03:37:25.413Z,4.20
2022-08-20T03:39:52.189Z,4.70
2022-08-20T03:42:18.884Z,4.20
2022-08-20T03:44:45.368Z,4.43
2022-08-20T03:47:12.064Z,6.53
2022-08-20T03:49:38.600Z,5.30
2022-08-20T03:52:05.376Z,4.70
2022-08-20T03:54:32.313Z,4.20
2022-08-20T03:57:00.272Z,4.50
2022-08-20T03:59:26.953Z,4.68
2022-08-20T04:01:53.616Z,4.40
2022-08-20T04:04:21.185Z,4.60
2022-08-20T04:09:15.174Z,4.93
2022-08-20T04:11:42.396Z,4.47
2022-08-20T04:14:11.127Z,4.50
2022-08-20T04:16:40.357Z,6.38
2022-08-20T04:19:07.762Z,5.47
2022-08-20T04:21:35.715Z,5.28
2022-08-20T04:24:04.630Z,5.70
2022-08-20T04:26:32.053Z,4.97
2022-08-20T04:28:58.901Z,4.82
2022-08-20T04:31:25.695Z,6.20
2022-08-20T04:33:52.579Z,6.60
2022-08-20T04:36:19.381Z,6.13
2022-08-20T04:38:47.908Z,8.37
2022-08-20T04:41:23.567Z,10.25
2022-08-20T04:43:53.215Z,9.25
2022-08-20T04:46:21.046Z,11.50
2022-08-20T04:48:49.146Z,11.10
2022-08-20T04:51:17.298Z,10.80
2022-08-20T04:53:51.873Z,11.45
2022-08-20T04:56:23.776Z,11.88
2022-08-20T04:58:52.486Z,12.07
2022-08-20T05:01:19.800Z,13.30
2022-08-20T05:03:47.886Z,13.25
2022-08-20T05:06:16.224Z,13.98
2022-08-20T05:08:44.003Z,12.45
2022-08-20T05:11:34.138Z,14.27
2022-08-20T05:13:58.065Z,14.57
2022-08-20T05:16:24.928Z,13.30
2022-08-20T05:18:52.409Z,12.00
2022-08-20T05:21:20.654Z,14.30
2022-08-20T05:26:16.135Z,13.85
2022-08-20T05:28:58.001Z,15.20
2022-08-20T05:31:32.435Z,12.55
2022-08-20T05:34:11.185Z,13.40
2022-08-20T05:36:49.049Z,20.17
2022-08-20T05:39:18.373Z,19.00
2022-08-20T05:41:44.975Z,19.85
2022-08-20T05:44:14.043Z,20.17
2022-08-20T05:46:42.774Z,23.90
2022-08-20T05:49:16.178Z,27.30
2022-08-20T05:51:43.721Z,25.10
2022-08-20T05:54:10.296Z,27.27
2022-08-20T05:56:37.280Z,27.23
2022-08-20T05:59:05.036Z,29.85
2022-08-20T06:01:34.299Z,27.33
2022-08-20T06:04:19.781Z,26.42
2022-08-20T06:06:47.284Z,32.15
2022-08-20T06:09:16.522Z,27.90
2022-08-20T06:11:54.720Z,32.25
2022-08-20T06:14:26.610Z,33.22
2022-08-20T06:16:57.569Z,31.95
2022-08-20T06:19:26.173Z,29.98
2022-08-20T06:24:21.385Z,33.40
2022-08-20T06:26:48.167Z,30.35
2022-08-20T06:33:39.585Z,27.90
2022-08-20T06:36:07.153Z,29.23
2022-08-20T06:41:05.936Z,22.90
2022-08-20T06:43:32.562Z,27.42
2022-08-20T06:45:59.061Z,31.80
2022-08-20T06:48:25.549Z,23.98
2022-08-20T06:50:53.268Z,26.67
2022-08-20T06:53:20.931Z,29.33
2022-08-20T06:58:37.832Z,31.48
2022-08-20T07:01:09.520Z,19.42
2022-08-20T07:03:38.187Z,24.27
2022-08-20T07:06:05.589Z,24.05
2022-08-20T07:08:32.268Z,24.73
2022-08-20T07:10:59.629Z,22.23
2022-08-20T07:13:26.289Z,22.05
2022-08-20T07:15:54.181Z,24.40
2022-08-20T07:18:28.037Z,26.42
2022-08-20T07:20:57.378Z,26.73
2022-08-20T07:23:27.549Z,27.83
2022-08-20T07:25:55.732Z,22.48
2022-08-20T07:28:24.193Z,26.45
2022-08-20T07:31:13.844Z,24.13
2022-08-20T07:33:44.790Z,26.10
2022-08-20T07:36:12.333Z,26.75
2022-08-20T07:38:38.991Z,21.17
2022-08-20T07:41:13.473Z,23.70
2022-08-20T07:43:40.983Z,28.52
2022-08-20T07:46:09.085Z,27.05
2022-08-20T07:48:40.092Z,28.73
2022-08-20T07:51:08.501Z,27.30
2022-08-20T07:53:37.500Z,23.55
2022-08-20T07:56:06.542Z,25.33
2022-08-20T07:58:35.774Z,18.73
2022-08-20T08:01:02.508Z,23.35
2022-08-20T08:03:40.558Z,22.07
2022-08-20T08:06:19.970Z,21.35
2022-08-20T08:09:08.201Z,22.70
2022-08-20T08:11:38.228Z,26.33
2022-08-20T08:14:08.264Z,25.17
2022-08-20T08:16:36.216Z,31.02
2022-08-20T08:19:06.626Z,24.55
2022-08-20T08:21:33.384Z,32.55
2022-08-20T08:24:00.480Z,33.47
2022-08-20T08:26:29.030Z,33.53
2022-08-20T08:28:56.142Z,26.42
2022-08-20T08:31:22.770Z,27.75
2022-08-20T08:33:49.246Z,44.83
2022-08-20T08:36:16.774Z,31.38
2022-08-20T08:41:24.596Z,28.15
2022-08-20T08:43:54.363Z,26.77
2022-08-20T08:46:27.294Z,29.92
2022-08-20T08:48:57.920Z,32.92
2022-08-20T08:51:37.318Z,33.42
2022-08-20T08:54:07.186Z,31.58
2022-08-20T08:56:34.864Z,39.95
2022-08-20T08:59:07.762Z,35.85
2022-08-20T09:01:55.695Z,32.38
2022-08-20T09:04:30.423Z,35.67
2022-08-20T09:06:58.773Z,35.38
2022-08-20T09:09:31.422Z,31.45
2022-08-20T09:12:08.527Z,38.22
2022-08-20T09:14:36.277Z,39.53
2022-08-20T09:17:03.099Z,41.40
2022-08-20T09:19:29.774Z,44.67
2022-08-20T09:21:56.346Z,41.78
2022-08-20T09:24:22.966Z,36.45
2022-08-20T09:26:49.555Z,28.85
2022-08-20T09:29:16.205Z,26.90
2022-08-20T09:31:43.553Z,31.45
2022-08-20T09:34:11.756Z,26.73
2022-08-20T09:36:38.365Z,32.10
2022-08-20T09:39:05.003Z,31.00
2022-08-20T09:41:33.865Z,28.90
2022-08-20T09:44:01.449Z,25.20
2022-08-20T09:46:27.989Z,23.37
2022-08-20T09:48:55.246Z,25.52
2022-08-20T09:51:22.240Z,23.73
2022-08-20T09:53:49.231Z,24.40
2022-08-20T09:56:16.903Z,25.63
2022-08-20T10:01:17.041Z,20.45
2022-08-20T10:03:44.962Z,27.02
2022-08-20T10:06:14.724Z,20.85
2022-08-20T10:08:41.323Z,18.38
2022-08-20T10:11:07.828Z,14.98
2022-08-20T10:13:34.337Z,17.65
2022-08-20T10:16:00.875Z,16.92
2022-08-20T10:18:27.582Z,12.13
2022-08-20T10:20:54.174Z,14.00
2022-08-20T10:23:20.720Z,15.05
2022-08-20T10:25:47.211Z,15.48
2022-08-20T10:28:13.817Z,13.38
2022-08-20T10:30:40.469Z,14.02
2022-08-20T10:33:07.080Z,15.30
2022-08-20T10:35:33.916Z,16.13
2022-08-20T10:38:00.585Z,18.20
2022-08-20T10:40:27.204Z,12.87
2022-08-20T10:42:53.863Z,11.30
2022-08-20T10:45:20.417Z,12.00
2022-08-20T10:47:47.102Z,11.40
2022-08-20T10:50:16.747Z,10.83
2022-08-20T10:52:43.801Z,11.07
2022-08-20T10:55:10.823Z,11.75
2022-08-20T10:57:40.038Z,10.95
2022-08-20T11:00:10.222Z,11.48
2022-08-20T11:02:37.595Z,10.45
2022-08-20T11:05:05.055Z,11.35
2022-08-20T11:10:19.519Z,10.93
2022-08-20T11:12:46.664Z,8.23
2022-08-20T11:15:14.038Z,9.77
2022-08-20T11:17:42.458Z,9.50
2022-08-20T11:20:11.860Z,11.40
2022-08-20T11:22:38.429Z,10.27
2022-08-20T11:25:06.685Z,10.20
2022-08-20T11:27:36.992Z,8.23
2022-08-20T11:30:05.214Z,10.32
2022-08-20T11:32:31.744Z,9.30
2022-08-20T11:34:58.375Z,9.85
2022-08-20T11:37:25.661Z,8.37
2022-08-20T11:39:52.518Z,7.80
2022-08-20T11:42:19.144Z,8.45
2022-08-20T11:44:45.637Z,9.20
2022-08-20T11:47:21.933Z,9.47
2022-08-20T11:49:57.395Z,9.97
2022-08-20T11:52:23.990Z,7.63
2022-08-20T11:54:54.821Z,8.88
2022-08-20T11:57:23.749Z,9.40
2022-08-20T11:59:51.064Z,9.95
2022-08-20T12:04:44.358Z,10.40
2022-08-20T12:07:17.791Z,10.38
2022-08-20T12:09:50.686Z,9.43
2022-08-20T12:12:20.556Z,8.98
2022-08-20T12:14:47.129Z,10.85
2022-08-20T12:17:23.598Z,10.40
2022-08-20T12:19:52.150Z,11.57
2022-08-20T12:22:24.564Z,9.20
2022-08-20T12:24:52.442Z,7.45
2022-08-20T12:29:49.479Z,10.23
2022-08-20T12:32:16.141Z,7.72
2022-08-20T12:34:43.283Z,8.13
2022-08-20T12:37:17.902Z,8.93
2022-08-20T12:39:47.800Z,6.82
2022-08-20T12:42:15.457Z,6.75
2022-08-20T12:44:43.295Z,8.73
2022-08-20T12:47:14.344Z,9.38
2022-08-20T12:49:50.138Z,6.88
2022-08-20T12:52:18.908Z,8.07
2022-08-20T12:54:46.568Z,7.07
2022-08-20T12:57:26.325Z,7.15
2022-08-20T12:59:52.819Z,8.15
2022-08-20T13:02:19.428Z,8.37
2022-08-20T13:04:45.984Z,12.82
2022-08-20T13:07:13.371Z,9.33
2022-08-20T13:12:08.189Z,8.57
2022-08-20T13:14:35.188Z,7.93
2022-08-20T13:17:02.227Z,7.38
2022-08-20T13:19:30.522Z,6.15
2022-08-20T13:21:57.313Z,6.63
2022-08-20T13:24:23.944Z,6.13
2022-08-20T13:26:50.989Z,6.82
2022-08-20T13:29:19.333Z,6.95
2022-08-20T13:31:46.080Z,7.82
2022-08-20T13:34:13.128Z,6.82
2022-08-20T13:36:40.791Z,6.68
2022-08-20T13:39:07.765Z,7.10
2022-08-20T13:41:34.683Z,6.78
2022-08-20T13:44:01.587Z,6.55
2022-08-20T13:46:28.253Z,5.45
2022-08-20T13:48:54.829Z,6.03
2022-08-20T13:51:22.839Z,5.27
2022-08-20T13:53:54.376Z,4.82
2022-08-20T13:56:20.910Z,6.45
2022-08-20T13:58:47.512Z,5.50
2022-08-20T14:01:14.119Z,5.97
2022-08-20T14:03:40.975Z,4.45
2022-08-20T14:06:09.965Z,4.38
2022-08-20T14:08:36.760Z,3.70
2022-08-20T14:11:03.507Z,3.83
2022-08-20T14:13:30.388Z,4.05
2022-08-20T14:15:57.121Z,5.32
2022-08-20T14:18:23.709Z,3.67
2022-08-20T14:20:50.312Z,3.58
2022-08-20T14:23:16.883Z,4.30
2022-08-20T14:25:48.345Z,4.75
2022-08-20T14:28:21.130Z,5.07
2022-08-20T14:30:52.851Z,4.18
2022-08-20T14:33:20.629Z,3.80
2022-08-20T14:35:47.180Z,4.45
2022-08-20T14:38:13.802Z,3.45
2022-08-20T14:40:40.508Z,4.50
2022-08-20T14:43:07.046Z,4.40
2022-08-20T14:45:33.860Z,3.65
2022-08-20T14:48:00.420Z,2.25
2022-08-20T14:50:30.571Z,3.10
2022-08-20T14:52:57.648Z,3.10
2022-08-20T14:55:27.573Z,3.25
2022-08-20T14:57:54.684Z,2.35
2022-08-20T15:02:49.951Z,3.45
2022-08-20T15:05:16.943Z,3.10
2022-08-20T15:07:47.710Z,3.22
2022-08-20T15:10:32.762Z,3.58
2022-08-20T15:12:59.602Z,2.33
2022-08-20T15:15:26.207Z,2.47
2022-08-20T15:17:57.726Z,2.20
2022-08-20T15:20:28.543Z,3.17
2022-08-20T15:22:55.633Z,2.58
2022-08-20T15:25:24.741Z,2.83
2022-08-20T15:27:51.630Z,2.53
2022-08-20T15:30:22.231Z,3.25
2022-08-20T15:32:54.175Z,2.22
2022-08-20T15:35:25.941Z,2.85
2022-08-20T15:37:55.465Z,3.08
2022-08-20T15:40:27.827Z,2.50
2022-08-20T15:42:56.134Z,4.03
2022-08-20T15:45:22.680Z,3.00
2022-08-20T15:47:51.988Z,3.05
2022-08-20T15:50:34.697Z,2.70
2022-08-20T15:53:08.682Z,2.75
2022-08-20T15:55:40.975Z,2.55
2022-08-20T15:58:37.165Z,2.30
2022-08-20T16:01:24.527Z,3.10
2022-08-20T16:03:59.672Z,2.53
2022-08-20T16:06:30.913Z,2.20
2022-08-20T16:09:23.630Z,2.60
2022-08-20T16:12:10.584Z,2.50
2022-08-20T16:14:41.164Z,3.28
2022-08-20T16:17:11.192Z,3.90
2022-08-20T16:19:55.236Z,2.47
2022-08-20T16:22:22.871Z,2.65
2022-08-20T16:24:50.101Z,3.13
2022-08-20T16:28:00.973Z,2.90
2022-08-20T16:30:59.360Z,3.20
2022-08-20T16:33:34.858Z,2.47
2022-08-20T16:36:03.795Z,3.10
2022-08-20T16:38:59.388Z,3.63
2022-08-20T16:41:31.838Z,3.17
2022-08-20T16:44:05.049Z,3.17
2022-08-20T16:46:38.073Z,4.35
2022-08-20T16:49:11.334Z,4.00
2022-08-20T16:51:41.858Z,3.53
2022-08-20T16:54:10.763Z,5.57
2022-08-20T16:56:42.085Z,5.15
2022-08-20T16:59:12.772Z,4.25
2022-08-20T17:02:07.242Z,3.30
2022-08-20T17:05:00.093Z,5.50
2022-08-20T17:07:42.550Z,4.40
2022-08-20T17:10:31.860Z,4.50
2022-08-20T17:13:04.731Z,4.40
2022-08-20T17:15:35.293Z,4.03
2022-08-20T17:18:29.846Z,3.85
2022-08-20T17:21:02.868Z,4.20
2022-08-20T17:23:40.636Z,4.30
2022-08-20T17:26:28.160Z,4.78
2022-08-20T17:29:04.258Z,5.15
2022-08-20T17:31:39.064Z,4.37
2022-08-20T17:34:05.881Z,3.75
2022-08-20T17:36:34.332Z,5.97
2022-08-20T17:39:01.671Z,4.32
2022-08-20T17:41:34.376Z,4.97
2022-08-20T17:44:08.322Z,3.58
2022-08-20T17:46:43.430Z,6.03
2022-08-20T17:49:14.779Z,7.72
2022-08-20T17:51:51.862Z,6.00
2022-08-20T17:58:54.611Z,13.00
2022-08-20T18:01:23.123Z,5.60
2022-08-20T18:03:51.483Z,5.70
2022-08-20T18:06:39.966Z,5.40
2022-08-20T18:09:16.981Z,5.63
2022-08-20T18:12:03.749Z,6.28
2022-08-20T18:14:30.319Z,5.70
2022-08-20T18:17:02.876Z,6.23
2022-08-20T18:20:03.688Z,5.80
2022-08-20T18:22:33.920Z,7.25
2022-08-20T18:25:09.694Z,6.80
2022-08-20T18:27:44.863Z,6.60
2022-08-20T18:30:18.810Z,7.85
2022-08-20T18:32:47.718Z,6.60
2022-08-20T18:35:32.811Z,5.93
2022-08-20T18:38:22.356Z,5.85
2022-08-20T18:40:54.929Z,8.10
2022-08-20T18:43:30.619Z,6.53
2022-08-20T18:46:12.841Z,8.88
2022-08-20T18:48:50.813Z,9.82
2022-08-20T18:51:21.356Z,5.93
2022-08-20T18:53:51.897Z,6.75
2022-08-20T18:56:35.297Z,7.32
2022-08-20T18:59:21.170Z,7.97
2022-08-20T19:01:49.196Z,6.72
2022-08-20T19:04:23.904Z,7.63
2022-08-20T19:07:11.437Z,6.00
2022-08-20T19:09:37.933Z,5.93
2022-08-20T19:12:20.777Z,6.63
2022-08-20T19:15:07.884Z,6.68
2022-08-20T19:20:19.768Z,6.05
2022-08-20T19:22:49.017Z,6.60
2022-08-20T19:25:29.750Z,6.90
2022-08-20T19:28:03.366Z,6.47
2022-08-20T19:30:34.426Z,7.05
2022-08-20T19:33:01.454Z,9.15
2022-08-20T19:35:28.181Z,7.22
2022-08-20T19:37:54.753Z,6.35
2022-08-20T19:40:31.081Z,6.22
2022-08-20T19:43:04.375Z,6.47
2022-08-20T19:45:38.720Z,6.40
2022-08-20T19:48:27.606Z,6.82
2022-08-20T19:50:54.843Z,7.20
2022-08-20T19:53:30.481Z,6.82
2022-08-20T19:56:06.499Z,7.07
2022-08-20T19:58:34.369Z,7.43
2022-08-20T20:01:03.219Z,7.35
2022-08-20T20:03:33.672Z,7.15
2022-08-20T20:06:00.214Z,7.63
2022-08-20T20:08:39.558Z,7.40
2022-08-20T20:11:06.450Z,7.70
2022-08-20T20:13:33.287Z,8.13
2022-08-20T20:16:04.875Z,8.25
2022-08-20T20:18:36.960Z,7.97
2022-08-20T20:21:14.101Z,7.55
2022-08-20T20:23:46.456Z,7.35
2022-08-20T20:26:17.143Z,8.02
2022-08-20T20:28:53.307Z,7.47
2022-08-20T20:31:24.716Z,7.43
2022-08-20T20:33:55.390Z,8.32
2022-08-20T20:36:40.435Z,8.15
2022-08-20T20:39:29.625Z,8.10
2022-08-20T20:42:00.041Z,7.72
2022-08-20T20:44:37.415Z,8.63
2022-08-20T20:47:08.194Z,8.68
2022-08-20T20:49:52.256Z,8.73
2022-08-20T20:52:28.769Z,8.65
2022-08-20T20:55:12.068Z,8.33
2022-08-20T20:57:39.153Z,7.90
2022-08-20T21:00:13.446Z,8.30
2022-08-20T21:02:40.932Z,9.00
2022-08-20T21:05:08.153Z,8.82
2022-08-20T21:07:34.679Z,9.68
2022-08-20T21:10:01.970Z,9.38
2022-08-20T21:12:29.519Z,9.05
2022-08-20T21:14:56.166Z,8.60
2022-08-20T21:17:23.107Z,9.65
2022-08-20T21:19:51.751Z,9.40
2022-08-20T21:22:19.850Z,10.38
2022-08-20T21:24:48.554Z,10.52
2022-08-20T21:27:15.885Z,10.60
2022-08-20T21:29:42.438Z,10.15
2022-08-20T21:32:09.348Z,9.73
2022-08-20T21:34:39.424Z,9.98
2022-08-20T21:37:06.013Z,11.23
2022-08-20T21:39:32.637Z,10.85
2022-08-20T21:42:02.359Z,10.45
2022-08-20T21:44:31.694Z,10.30
2022-08-20T21:47:00.371Z,10.25
2022-08-20T21:49:28.560Z,10.18
2022-08-20T21:51:56.604Z,11.00
2022-08-20T21:54:24.116Z,10.65
2022-08-20T21:56:54.186Z,10.32
2022-08-20T21:59:22.581Z,10.43
2022-08-20T22:01:49.302Z,10.32
2022-08-20T22:04:15.832Z,11.07
2022-08-20T22:06:42.462Z,10.25
2022-08-20T22:09:09.035Z,11.25
2022-08-20T22:11:35.890Z,10.60
2022-08-20T22:14:02.913Z,11.20
2022-08-20T22:16:29.481Z,11.33
2022-08-20T22:18:56.047Z,10.45
2022-08-20T22:21:25.657Z,10.30
2022-08-20T22:23:53.870Z,10.98
2022-08-20T22:26:21.140Z,10.75
2022-08-20T22:28:51.040Z,12.03
2022-08-20T22:31:21.250Z,11.40
2022-08-20T22:33:47.775Z,12.57
2022-08-20T22:36:14.301Z,11.40
2022-08-20T22:38:40.949Z,13.18
2022-08-20T22:41:09.684Z,12.15
2022-08-20T22:43:36.544Z,12.50
2022-08-20T22:46:15.113Z,13.15
2022-08-20T22:48:42.822Z,12.13
2022-08-20T22:53:36.608Z,11.95
2022-08-20T22:56:04.128Z,12.23
2022-08-20T22:58:31.514Z,12.13
2022-08-20T23:01:01.052Z,12.63
2022-08-20T23:03:39.281Z,11.68
2022-08-20T23:06:08.962Z,12.48
2022-08-20T23:08:35.604Z,12.70
2022-08-20T23:11:02.096Z,11.65
2022-08-20T23:13:28.768Z,11.68
2022-08-20T23:15:55.662Z,12.65
2022-08-20T23:18:22.304Z,11.83
2022-08-20T23:20:52.683Z,12.13
2022-08-20T23:23:19.872Z,12.02
2022-08-20T23:25:46.716Z,11.88
2022-08-20T23:28:13.197Z,11.60
2022-08-20T23:30:39.778Z,12.02
2022-08-20T23:33:06.280Z,11.27
2022-08-20T23:35:33.170Z,12.77
2022-08-20T23:38:00.122Z,10.55
2022-08-20T23:40:28.427Z,13.20
2022-08-20T23:42:55.233Z,11.80
2022-08-20T23:45:21.886Z,12.25
2022-08-20T23:47:48.829Z,11.52
2022-08-20T23:50:21.879Z,11.47
2022-08-20T23:52:51.727Z,11.25
2022-08-20T23:55:18.695Z,13.80
